Red Lake Airport
CYRL : rendu visible

Aérodrome :











RETROUVEZ-NOUS SUR...

 
LOGIN :

S'inscrire | Disclaimer

   EN    FR    IT 

 









Légende :    VFR   VFR Marginal   IFR   IFR Intensif   IFR Très Intensif
Visi : 
Plafond : 
>= 8 km
>= 3000ft
5 à 8 km
1000 à 3000 ft
1500m à 5 km
500 à 1000 ft
800 à 1500m
200 à 500 ft
< 800m
< 200 ft
Symboles :   Orages  Brouillard  Fortes neiges  Fortes précipitations  Vent > 20 kt






- Altitude de l'aérodrome : 1265 ft
- Code IATA : YRL


CYRL - Red Lake

DERNIER METAR :
  • 191500Z 14004KT 8SM -SN OVC004 M02/M02 A2964 RMK ST8 BR SLP059

METARs EXPIRÉS :
  • 191441Z 15004KT 8SM -SN OVC004 M02/M02 A2964 RMK ST8 BR SLP058
  • 191428Z 15004KT 4SM -SN OVC004 M02/M02 A2964 RMK SN1ST7 SLP058
  • 191415Z 17004KT 3/4SM -SN OVC004 M02/M02 A2964 RMK SN4ST4 SLP058
  • 191407Z 16003KT 120V180 2SM -SN BR OVC004 M02/M02 A2963 RMK SN1ST7 ICE ON INDICATOR CIG RAG SLP058
  • 191300Z 14004KT 8SM -SN BR OVC006 M02/M02 A2962 RMK ST8 ICE ON INDICATOR SLP054

TAF AMD TAF CYRL
Valide du 19 à 14h jusqu'au 20 à 02h UTC


191409Z 1914/2002 15005KT 4SM -SN -FZDZ BR OVC005
TEMPO 1914/1920 P6SM NSW OVC010
FM192000 20005KT 5SM -SN OVC006
TEMPO 1920/1923 P6SM NSW OVC010
FM192300 29009KT P6SM OVC010 RMK NXT FCST BY 192000Z



MET'MAP, la Météo Aéronautique d'un coup d'oeil ! - Copyright ORBIFLY Décembre 2007 - Disclaimer

ORBIFLY MET'MAP TEAM :

Programmation & Développement : Alexandra Zaïnal
Conception & Développement : Baudouin d'Aumeries
Co-Programmation & Développement : Marc-Olivier Méhu
Soutien technique & logistique : Manuel Goepfert

Contact : metmap@orbifly.com




SOURCES & CREDITS :

   NOAA       Earth
Advisory